createdAt,value
2022-11-05T00:00:50.583Z,13.73
2022-11-05T00:03:38.666Z,13.65
2022-11-05T00:06:30.722Z,14.40
2022-11-05T00:09:20.977Z,14.27
2022-11-05T00:12:10.053Z,13.38
2022-11-05T00:15:00.909Z,13.75
2022-11-05T00:17:35.589Z,14.43
2022-11-05T00:20:16.181Z,14.75
2022-11-05T00:23:06.238Z,14.02
2022-11-05T00:25:37.994Z,12.93
2022-11-05T00:28:05.920Z,15.35
2022-11-05T00:30:40.968Z,14.73
2022-11-05T00:33:10.481Z,13.57
2022-11-05T00:35:42.722Z,13.48
2022-11-05T00:38:13.790Z,13.30
2022-11-05T00:40:44.782Z,13.60
2022-11-05T00:43:51.723Z,13.23
2022-11-05T00:46:23.726Z,13.70
2022-11-05T00:49:29.815Z,14.18
2022-11-05T00:52:18.679Z,13.65
2022-11-05T00:54:47.063Z,13.43
2022-11-05T00:57:18.371Z,13.73
2022-11-05T00:59:47.460Z,13.35
2022-11-05T01:02:22.155Z,13.60
2022-11-05T01:04:52.103Z,13.27
2022-11-05T01:07:21.716Z,12.85
2022-11-05T01:09:59.573Z,12.57
2022-11-05T01:12:29.621Z,12.88
2022-11-05T01:14:59.680Z,12.35
2022-11-05T01:17:28.489Z,13.10
2022-11-05T01:19:59.712Z,12.15
2022-11-05T01:22:31.010Z,12.18
2022-11-05T01:25:05.491Z,12.10
2022-11-05T01:27:40.428Z,12.55
2022-11-05T01:30:13.780Z,12.63
2022-11-05T01:32:44.696Z,13.35
2022-11-05T01:35:16.609Z,11.55
2022-11-05T01:37:51.797Z,12.82
2022-11-05T01:40:25.450Z,12.15
2022-11-05T01:42:54.485Z,12.52
2022-11-05T01:45:32.011Z,12.55
2022-11-05T01:48:05.435Z,12.10
2022-11-05T01:50:54.596Z,10.85
2022-11-05T01:53:38.375Z,12.48
2022-11-05T01:56:16.417Z,12.20
2022-11-05T01:59:14.937Z,11.77
2022-11-05T02:02:11.539Z,11.68
2022-11-05T02:04:58.279Z,12.45
2022-11-05T02:07:32.492Z,11.10
2022-11-05T02:10:07.798Z,11.80
2022-11-05T02:12:56.142Z,11.40
2022-11-05T02:16:08.968Z,11.02
2022-11-05T02:19:18.850Z,11.10
2022-11-05T02:22:15.372Z,10.55
2022-11-05T02:25:25.870Z,11.90
2022-11-05T02:28:01.511Z,12.50
2022-11-05T02:30:54.656Z,12.25
2022-11-05T02:33:35.813Z,12.57
2022-11-05T02:36:40.405Z,12.32
2022-11-05T02:39:52.300Z,12.80
2022-11-05T02:42:52.400Z,11.85
2022-11-05T02:45:23.306Z,12.07
2022-11-05T02:48:20.738Z,11.07
2022-11-05T02:51:17.451Z,12.13
2022-11-05T02:54:07.516Z,11.48
2022-11-05T02:56:42.953Z,11.85
2022-11-05T02:59:14.953Z,11.95
2022-11-05T03:04:21.002Z,12.07
2022-11-05T03:07:08.872Z,11.88
2022-11-05T03:10:05.524Z,12.20
2022-11-05T03:13:30.958Z,12.50
2022-11-05T03:16:12.264Z,11.93
2022-11-05T03:19:14.672Z,11.75
2022-11-05T03:21:54.634Z,13.05
2022-11-05T03:24:37.534Z,12.07
2022-11-05T03:27:17.483Z,12.70
2022-11-05T03:29:55.133Z,12.05
2022-11-05T03:32:28.108Z,12.57
2022-11-05T03:35:25.484Z,12.85
2022-11-05T03:38:01.033Z,12.32
2022-11-05T03:40:35.925Z,12.27
2022-11-05T03:43:10.729Z,12.63
2022-11-05T03:46:07.703Z,12.00
2022-11-05T03:48:46.693Z,12.13
2022-11-05T03:51:22.101Z,11.75
2022-11-05T03:53:58.995Z,11.70
2022-11-05T03:57:23.965Z,11.40
2022-11-05T04:00:22.703Z,10.63
2022-11-05T04:03:36.718Z,11.00
2022-11-05T04:06:43.306Z,10.13
2022-11-05T04:09:50.532Z,10.60
2022-11-05T04:12:39.136Z,11.05
2022-11-05T04:15:08.145Z,10.77
2022-11-05T04:17:59.032Z,10.23
2022-11-05T04:20:49.380Z,10.35
2022-11-05T04:23:36.106Z,9.95
2022-11-05T04:26:04.165Z,10.65
2022-11-05T04:28:51.968Z,10.38
2022-11-05T04:31:20.256Z,9.57
2022-11-05T04:33:47.881Z,9.30
2022-11-05T04:36:15.507Z,10.00
2022-11-05T04:38:43.615Z,11.05
2022-11-05T04:41:16.659Z,9.45
2022-11-05T04:43:44.901Z,10.00
2022-11-05T04:46:12.851Z,10.35
2022-11-05T04:48:40.598Z,9.80
2022-11-05T04:51:08.844Z,9.45
2022-11-05T04:53:36.701Z,9.95
2022-11-05T04:56:19.633Z,9.82
2022-11-05T04:58:48.315Z,10.18
2022-11-05T05:01:21.773Z,10.25
2022-11-05T05:03:51.731Z,10.30
2022-11-05T05:06:19.399Z,9.95
2022-11-05T05:08:48.958Z,10.13
2022-11-05T05:11:19.620Z,10.20
2022-11-05T05:13:48.136Z,11.40
2022-11-05T05:16:21.149Z,10.88
2022-11-05T05:18:49.784Z,11.12
2022-11-05T05:21:37.899Z,11.27
2022-11-05T05:24:12.438Z,11.23
2022-11-05T05:26:46.251Z,12.13
2022-11-05T05:29:14.772Z,12.23
2022-11-05T05:31:42.984Z,11.07
2022-11-05T05:34:12.942Z,10.85
2022-11-05T05:36:41.202Z,10.20
2022-11-05T05:39:11.138Z,10.02
2022-11-05T05:41:38.977Z,9.60
2022-11-05T05:44:07.233Z,9.85
2022-11-05T05:46:35.066Z,10.10
2022-11-05T05:49:05.501Z,10.57
2022-11-05T05:51:37.436Z,10.02
2022-11-05T05:54:05.780Z,10.35
2022-11-05T05:56:33.465Z,10.95
2022-11-05T05:59:02.021Z,10.40
2022-11-05T06:01:29.751Z,9.63
2022-11-05T06:03:57.731Z,9.93
2022-11-05T06:06:25.697Z,10.32
2022-11-05T06:08:55.225Z,10.82
2022-11-05T06:11:24.630Z,11.50
2022-11-05T06:13:52.426Z,10.82
2022-11-05T06:16:20.527Z,10.60
2022-11-05T06:18:49.557Z,10.18
2022-11-05T06:21:18.219Z,10.25
2022-11-05T06:23:48.848Z,9.63
2022-11-05T06:26:19.222Z,10.15
2022-11-05T06:28:47.118Z,9.75
2022-11-05T06:31:22.340Z,9.93
2022-11-05T06:34:00.246Z,9.48
2022-11-05T06:36:27.810Z,10.82
2022-11-05T06:38:55.628Z,10.82
2022-11-05T06:41:23.894Z,10.82
2022-11-05T06:43:51.656Z,10.48
2022-11-05T06:46:19.786Z,11.57
2022-11-05T06:48:48.644Z,11.50
2022-11-05T06:51:16.369Z,9.15
2022-11-05T06:53:43.974Z,9.77
2022-11-05T06:56:11.955Z,9.32
2022-11-05T06:58:39.531Z,10.20
2022-11-05T07:01:09.387Z,9.82
2022-11-05T07:03:38.703Z,9.70
2022-11-05T07:06:07.335Z,9.82
2022-11-05T07:08:36.403Z,10.60
2022-11-05T07:11:04.747Z,9.18
2022-11-05T07:13:33.441Z,9.18
2022-11-05T07:16:01.172Z,9.50
2022-11-05T07:18:29.166Z,9.82
2022-11-05T07:20:56.933Z,9.43
2022-11-05T07:23:24.790Z,9.70
2022-11-05T07:25:52.726Z,9.63
2022-11-05T07:28:20.449Z,10.27
2022-11-05T07:30:48.413Z,10.57
2022-11-05T07:33:16.781Z,10.52
2022-11-05T07:35:44.413Z,10.27
2022-11-05T07:38:12.114Z,10.40
2022-11-05T07:40:41.842Z,10.52
2022-11-05T07:43:44.527Z,9.52
2022-11-05T07:56:54.318Z,9.50
2022-11-05T08:00:42.602Z,9.63
2022-11-05T08:03:15.035Z,10.23
2022-11-05T08:06:02.867Z,10.60
2022-11-05T08:08:31.277Z,10.52
2022-11-05T08:11:06.761Z,10.48
2022-11-05T08:13:34.769Z,10.68
2022-11-05T08:16:03.157Z,11.23
2022-11-05T08:18:32.528Z,9.70
2022-11-05T08:21:03.158Z,10.38
2022-11-05T08:23:32.065Z,12.60
2022-11-05T08:26:03.737Z,11.90
2022-11-05T08:28:31.865Z,10.95
2022-11-05T08:30:59.821Z,9.43
2022-11-05T08:33:28.072Z,9.13
2022-11-05T08:35:55.724Z,8.75
2022-11-05T08:38:23.779Z,9.05
2022-11-05T08:40:56.528Z,8.38
2022-11-05T08:43:24.802Z,8.52
2022-11-05T08:45:52.717Z,8.32
2022-11-05T08:48:20.597Z,8.63
2022-11-05T08:50:49.449Z,9.23
2022-11-05T08:53:17.270Z,9.05
2022-11-05T08:55:46.696Z,9.13
2022-11-05T08:58:17.130Z,8.45
2022-11-05T09:00:47.622Z,9.27
2022-11-05T09:03:16.533Z,9.00
2022-11-05T09:05:44.448Z,8.85
2022-11-05T09:08:14.829Z,9.75
2022-11-05T09:10:43.673Z,9.32
2022-11-05T09:13:17.778Z,9.52
2022-11-05T09:15:50.261Z,8.85
2022-11-05T09:18:19.209Z,10.15
2022-11-05T09:20:47.789Z,8.77
2022-11-05T09:23:15.677Z,8.30
2022-11-05T09:25:43.885Z,8.02
2022-11-05T09:28:17.446Z,8.00
2022-11-05T09:30:48.134Z,8.80
2022-11-05T09:33:19.572Z,7.68
2022-11-05T09:38:16.981Z,7.75
2022-11-05T09:41:02.115Z,9.68
2022-11-05T09:44:00.630Z,9.05
2022-11-05T09:46:54.971Z,9.82
2022-11-05T09:49:52.149Z,9.23
2022-11-05T09:52:23.909Z,9.68
2022-11-05T09:54:54.347Z,9.05
2022-11-05T09:57:42.074Z,9.68
2022-11-05T10:00:16.842Z,8.95
2022-11-05T10:02:54.971Z,8.48
2022-11-05T10:05:25.517Z,10.13
2022-11-05T10:07:58.719Z,12.30
2022-11-05T10:10:43.346Z,8.70
2022-11-05T10:13:23.565Z,10.00
2022-11-05T10:16:02.837Z,9.27
2022-11-05T10:18:33.142Z,9.82
2022-11-05T10:21:01.335Z,9.75
2022-11-05T10:23:29.704Z,9.23
2022-11-05T10:26:05.440Z,8.93
2022-11-05T10:28:34.274Z,8.40
2022-11-05T10:31:09.970Z,8.52
2022-11-05T10:33:45.361Z,8.07
2022-11-05T10:36:21.340Z,8.35
2022-11-05T10:38:50.010Z,8.40
2022-11-05T10:41:47.219Z,8.77
2022-11-05T10:44:23.947Z,8.52
2022-11-05T10:47:20.873Z,8.10
2022-11-05T10:49:54.796Z,7.80
2022-11-05T10:52:39.147Z,8.27
2022-11-05T10:55:17.618Z,8.18
2022-11-05T10:57:48.190Z,8.00
2022-11-05T11:03:01.553Z,7.95
2022-11-05T11:05:38.166Z,7.95
2022-11-05T11:08:10.747Z,8.35
2022-11-05T11:10:51.852Z,9.38
2022-11-05T11:13:29.338Z,8.85
2022-11-05T11:16:16.062Z,9.73
2022-11-05T11:18:44.256Z,9.25
2022-11-05T11:21:19.655Z,9.35
2022-11-05T11:24:04.949Z,9.50
2022-11-05T11:26:36.528Z,9.25
2022-11-05T11:29:16.381Z,9.15
2022-11-05T11:31:44.228Z,9.55
2022-11-05T11:34:14.986Z,10.07
2022-11-05T11:36:48.500Z,9.85
2022-11-05T11:39:24.765Z,10.05
2022-11-05T11:41:55.553Z,10.73
2022-11-05T11:47:05.042Z,10.30
2022-11-05T11:49:42.151Z,11.02
2022-11-05T11:52:14.600Z,10.88
2022-11-05T11:54:42.927Z,11.55
2022-11-05T11:57:23.983Z,10.73
2022-11-05T12:00:08.294Z,11.90
2022-11-05T12:03:04.189Z,11.80
2022-11-05T12:05:37.708Z,11.88
2022-11-05T12:08:14.367Z,11.20
2022-11-05T12:10:54.422Z,11.43
2022-11-05T12:13:28.583Z,11.00
2022-11-05T12:16:19.466Z,11.00
2022-11-05T12:19:00.279Z,10.65
2022-11-05T12:22:11.461Z,11.15
2022-11-05T12:25:21.521Z,11.55
2022-11-05T12:27:55.226Z,10.77
2022-11-05T12:30:23.496Z,10.90
2022-11-05T12:33:20.687Z,10.48
2022-11-05T12:36:02.774Z,11.15
2022-11-05T12:38:47.487Z,11.20
2022-11-05T12:41:27.257Z,11.23
2022-11-05T12:44:10.224Z,11.63
2022-11-05T12:46:54.047Z,10.50
2022-11-05T12:49:36.320Z,10.75
2022-11-05T12:52:12.839Z,10.27
2022-11-05T12:55:01.092Z,12.00
2022-11-05T12:57:32.219Z,10.98
2022-11-05T13:00:16.639Z,11.07
2022-11-05T13:03:20.258Z,11.70
2022-11-05T13:06:17.778Z,10.85
2022-11-05T13:09:02.155Z,12.18
2022-11-05T13:11:54.909Z,11.48
2022-11-05T13:17:03.462Z,11.90
2022-11-05T13:19:48.881Z,11.95
2022-11-05T13:22:20.322Z,12.57
2022-11-05T13:24:57.273Z,11.40
2022-11-05T13:27:30.990Z,12.23
2022-11-05T13:30:07.550Z,11.98
2022-11-05T13:32:39.406Z,11.90
2022-11-05T13:35:16.159Z,12.02
2022-11-05T13:38:07.503Z,10.88
2022-11-05T13:43:23.309Z,11.63
2022-11-05T13:46:05.431Z,12.27
2022-11-05T13:49:25.728Z,12.85
2022-11-05T13:52:24.455Z,12.52
2022-11-05T13:55:20.136Z,16.90
2022-11-05T13:58:00.644Z,15.88
2022-11-05T14:00:34.196Z,13.80
2022-11-05T14:03:17.268Z,13.50
2022-11-05T14:05:57.073Z,13.90
2022-11-05T14:08:29.954Z,15.82
2022-11-05T14:11:14.881Z,15.50
2022-11-05T14:13:46.729Z,14.52
2022-11-05T14:19:33.299Z,13.23
2022-11-05T14:22:33.461Z,13.15
2022-11-05T14:25:22.705Z,13.70
2022-11-05T14:27:52.838Z,13.70
2022-11-05T14:30:49.910Z,14.48
2022-11-05T14:33:27.400Z,14.85
2022-11-05T14:36:20.651Z,14.20
2022-11-05T14:39:00.046Z,13.43
2022-11-05T14:41:32.271Z,13.95
2022-11-05T14:44:05.689Z,14.63
2022-11-05T14:46:44.749Z,14.65
2022-11-05T14:49:20.949Z,14.07
2022-11-05T14:51:52.690Z,14.25
2022-11-05T14:54:53.935Z,14.30
2022-11-05T14:57:42.025Z,14.18
2022-11-05T15:00:31.619Z,14.70
2022-11-05T15:03:25.504Z,15.38
2022-11-05T15:06:25.245Z,14.32
2022-11-05T15:09:05.680Z,19.30
2022-11-05T15:11:46.887Z,20.20
2022-11-05T15:14:19.249Z,21.42
2022-11-05T15:17:05.455Z,22.80
2022-11-05T15:19:37.649Z,25.23
2022-11-05T15:22:19.750Z,24.55
2022-11-05T15:24:49.682Z,22.50
2022-11-05T15:27:36.876Z,20.08
2022-11-05T15:31:24.915Z,20.77
2022-11-05T15:34:30.887Z,22.08
2022-11-05T15:37:26.949Z,18.35
2022-11-05T15:39:56.580Z,19.02
2022-11-05T15:42:27.444Z,20.10
2022-11-05T15:44:58.695Z,22.23
2022-11-05T15:47:55.384Z,22.30
2022-11-05T15:50:27.851Z,23.12
2022-11-05T15:56:36.881Z,24.75
2022-11-05T15:59:22.578Z,24.35
2022-11-05T16:02:19.513Z,27.13
2022-11-05T16:04:54.511Z,24.95
2022-11-05T16:07:28.936Z,23.80
2022-11-05T16:10:30.768Z,25.48
2022-11-05T16:13:42.251Z,26.02
2022-11-05T16:16:33.614Z,27.73
2022-11-05T16:19:02.968Z,27.23
2022-11-05T16:21:31.779Z,27.55
2022-11-05T16:24:01.514Z,32.30
2022-11-05T16:29:38.542Z,34.53
2022-11-05T16:32:16.631Z,33.67
2022-11-05T16:34:52.396Z,33.30
2022-11-05T16:37:24.545Z,33.25
2022-11-05T16:39:56.607Z,33.88
2022-11-05T16:42:24.848Z,32.50
2022-11-05T16:44:55.829Z,31.23
2022-11-05T16:47:26.122Z,28.85
2022-11-05T16:49:59.596Z,28.33
2022-11-05T16:52:30.126Z,26.12
2022-11-05T16:54:58.630Z,25.43
2022-11-05T16:57:32.274Z,25.20
2022-11-05T17:00:02.548Z,25.02
2022-11-05T17:02:32.149Z,26.02
2022-11-05T17:05:00.794Z,25.20
2022-11-05T17:07:29.190Z,25.02
2022-11-05T17:09:58.030Z,25.30
2022-11-05T17:12:29.850Z,24.17
2022-11-05T17:14:58.785Z,21.42
2022-11-05T17:17:29.047Z,21.80
2022-11-05T17:19:57.539Z,20.62
2022-11-05T17:22:27.491Z,20.65
2022-11-05T17:24:56.150Z,20.70
2022-11-05T17:27:24.201Z,18.30
2022-11-05T17:29:52.648Z,18.50
2022-11-05T17:32:20.626Z,17.45
2022-11-05T17:34:48.782Z,17.48
2022-11-05T17:37:17.384Z,17.58
2022-11-05T17:39:46.492Z,18.90
2022-11-05T17:42:14.649Z,17.58
2022-11-05T17:44:43.631Z,18.55
2022-11-05T17:47:11.482Z,17.77
2022-11-05T17:49:39.721Z,17.85
2022-11-05T17:52:09.700Z,18.10
2022-11-05T17:54:38.385Z,19.67
2022-11-05T17:57:07.709Z,20.73
2022-11-05T17:59:36.361Z,22.62
2022-11-05T18:02:04.785Z,22.15
2022-11-05T18:04:33.465Z,23.23
2022-11-05T18:07:01.520Z,24.37
2022-11-05T18:09:29.867Z,23.33
2022-11-05T18:11:59.069Z,24.27
2022-11-05T18:14:27.321Z,22.98
2022-11-05T18:17:00.162Z,23.52
2022-11-05T18:19:29.786Z,22.10
2022-11-05T18:21:58.001Z,21.70
2022-11-05T18:24:25.881Z,20.95
2022-11-05T18:26:54.669Z,20.52
2022-11-05T18:29:22.561Z,19.95
2022-11-05T18:31:51.490Z,18.77
2022-11-05T18:34:19.826Z,18.27
2022-11-05T18:36:53.489Z,17.23
2022-11-05T18:39:24.985Z,16.95
2022-11-05T18:41:52.911Z,16.67
2022-11-05T18:44:22.993Z,15.65
2022-11-05T18:46:57.965Z,15.32
2022-11-05T18:49:27.467Z,14.82
2022-11-05T18:51:55.713Z,13.82
2022-11-05T18:54:24.159Z,12.43
2022-11-05T18:56:52.080Z,9.48
2022-11-05T18:59:39.004Z,8.50
2022-11-05T19:02:08.909Z,7.47
2022-11-05T19:04:37.828Z,6.60
2022-11-05T19:07:07.510Z,6.25
2022-11-05T19:09:36.261Z,6.60
2022-11-05T19:12:07.436Z,6.03
2022-11-05T19:14:35.781Z,5.87
2022-11-05T19:17:06.912Z,5.43
2022-11-05T19:22:04.539Z,5.10
2022-11-05T19:24:32.268Z,4.85
2022-11-05T19:27:00.643Z,5.12
2022-11-05T19:29:29.057Z,4.03
2022-11-05T19:31:57.089Z,4.45
2022-11-05T19:34:25.889Z,4.55
2022-11-05T19:36:56.593Z,4.40
2022-11-05T19:39:26.092Z,4.70
2022-11-05T19:41:58.920Z,4.25
2022-11-05T19:44:31.893Z,4.75
2022-11-05T19:47:00.061Z,4.53
2022-11-05T19:49:28.578Z,4.43
2022-11-05T19:51:57.251Z,4.22
2022-11-05T19:54:25.381Z,4.62
2022-11-05T19:56:53.819Z,4.05
2022-11-05T19:59:22.060Z,4.12
2022-11-05T20:01:50.538Z,4.30
2022-11-05T20:04:20.986Z,4.40
2022-11-05T20:06:50.227Z,3.83
2022-11-05T20:09:22.921Z,4.10
2022-11-05T20:11:54.895Z,3.92
2022-11-05T20:14:24.376Z,4.13
2022-11-05T20:16:54.338Z,4.37
2022-11-05T20:19:23.437Z,4.40
2022-11-05T20:21:52.366Z,4.57
2022-11-05T20:24:25.047Z,4.32
2022-11-05T20:27:11.852Z,3.70
2022-11-05T20:29:50.798Z,3.75
2022-11-05T20:32:20.054Z,3.55
2022-11-05T20:34:48.593Z,3.92
2022-11-05T20:37:17.451Z,3.85
2022-11-05T20:39:46.513Z,3.50
2022-11-05T20:42:14.920Z,3.28
2022-11-05T20:44:43.543Z,3.08
2022-11-05T20:47:11.824Z,3.10
2022-11-05T20:49:40.150Z,3.58
2022-11-05T20:52:17.504Z,15.05
2022-11-05T20:54:46.712Z,3.33
2022-11-05T20:57:15.075Z,3.50
2022-11-05T20:59:42.943Z,3.00
2022-11-05T21:02:13.015Z,2.80
2022-11-05T21:04:41.246Z,3.30
2022-11-05T21:07:09.559Z,2.90
2022-11-05T21:09:38.363Z,3.03
2022-11-05T21:12:26.998Z,2.60
2022-11-05T21:15:01.674Z,2.85
2022-11-05T21:17:31.748Z,2.87
2022-11-05T21:20:06.523Z,2.53
2022-11-05T21:22:35.873Z,2.70
2022-11-05T21:25:05.222Z,2.40
2022-11-05T21:27:53.214Z,2.60
2022-11-05T21:30:26.426Z,3.12
2022-11-05T21:33:15.843Z,2.15
2022-11-05T21:35:47.305Z,2.70
2022-11-05T21:38:17.358Z,2.42
2022-11-05T21:40:45.749Z,2.25
2022-11-05T21:43:14.944Z,2.20
2022-11-05T21:45:45.367Z,2.35
2022-11-05T21:51:02.487Z,2.00
2022-11-05T21:53:49.616Z,2.20
2022-11-05T21:56:43.446Z,2.30
2022-11-05T21:59:34.315Z,2.22
2022-11-05T22:02:24.147Z,2.20
2022-11-05T22:04:53.793Z,2.17
2022-11-05T22:07:24.072Z,2.37
2022-11-05T22:12:21.925Z,2.00
2022-11-05T22:15:09.997Z,2.28
2022-11-05T22:17:42.559Z,2.35
2022-11-05T22:20:14.014Z,2.08
2022-11-05T22:23:07.363Z,2.20
2022-11-05T22:25:38.731Z,2.50
2022-11-05T22:28:08.221Z,2.30
2022-11-05T22:30:36.735Z,2.80
2022-11-05T22:33:04.738Z,2.30
2022-11-05T22:35:34.910Z,2.28
2022-11-05T22:38:03.465Z,2.50
2022-11-05T22:41:00.454Z,2.25
2022-11-05T22:43:28.457Z,2.05
2022-11-05T22:46:03.208Z,2.25
2022-11-05T22:48:51.520Z,2.17
2022-11-05T22:51:26.986Z,2.10
2022-11-05T22:53:55.237Z,1.70
2022-11-05T22:56:28.514Z,1.77
2022-11-05T22:58:57.334Z,2.00
2022-11-05T23:01:26.356Z,1.90
2022-11-05T23:03:56.667Z,2.40
2022-11-05T23:06:47.253Z,1.83
2022-11-05T23:09:52.770Z,1.90
2022-11-05T23:12:31.103Z,1.80
2022-11-05T23:15:00.789Z,1.75
2022-11-05T23:18:09.578Z,1.90
2022-11-05T23:20:59.910Z,2.00
2022-11-05T23:23:48.589Z,1.77
2022-11-05T23:26:35.031Z,1.70
2022-11-05T23:29:07.105Z,1.80
2022-11-05T23:31:53.957Z,1.70
2022-11-05T23:34:28.044Z,1.83
2022-11-05T23:37:16.922Z,1.70
2022-11-05T23:39:47.241Z,1.87
2022-11-05T23:42:34.220Z,1.60
2022-11-05T23:45:24.647Z,1.60
2022-11-05T23:48:12.000Z,1.75
2022-11-05T23:50:41.514Z,1.65
2022-11-05T23:53:31.413Z,1.58
2022-11-05T23:56:07.135Z,1.50
2022-11-05T23:58:37.036Z,1.77
